Time;durP1;ratioP1;P1;durP2;ratioP2;P2;SDS_P1;SDS_P2;PMS_P1;PMS_P2;Temp;Humidity;BMP_temperature;BMP_pressure;BME280_temperature;BME280_humidity;BME280_pressure;Samples;Min_cycle;Max_cycle;Signal;HPM_P1;HPM_P2
2021/12/08 00:01:42;;;;;;;10.20;4.50;;;;;;;2.30;100.00;99529.94;5015694;28;20044;-76
2021/12/08 00:04:10;;;;;;;9.80;3.90;;;;;;;2.20;100.00;99521.13;5032818;28;20398;-75
2021/12/08 00:06:38;;;;;;;10.98;3.88;;;;;;;2.15;100.00;99522.75;5053855;28;20260;-77
2021/12/08 00:09:26;;;;;;;9.27;4.30;;;;;;;2.07;100.00;99520.03;5050397;28;20033;-75
2021/12/08 00:14:42;;;;;;;9.85;4.20;;;;;;;1.93;100.00;99506.84;5003891;28;20290;-75
2021/12/08 00:17:11;;;;;;;9.23;4.32;;;;;;;1.89;100.00;99504.16;5049340;28;20375;-76
2021/12/08 00:19:39;;;;;;;8.75;4.40;;;;;;;1.84;100.00;99496.28;5044898;28;20257;-76
2021/12/08 00:22:07;;;;;;;11.73;4.72;;;;;;;1.81;100.00;99490.16;5054084;28;20041;-76
2021/12/08 00:24:35;;;;;;;11.07;4.13;;;;;;;1.78;100.00;99480.59;5032289;28;20044;-75
2021/12/08 00:27:04;;;;;;;8.88;3.88;;;;;;;1.74;100.00;99464.09;5074109;28;20040;-75
2021/12/08 00:29:33;;;;;;;10.98;4.65;;;;;;;1.70;100.00;99461.41;5041273;28;20165;-76
2021/12/08 00:32:02;;;;;;;11.90;4.93;;;;;;;1.67;100.00;99440.59;5017156;28;20049;-75
2021/12/08 00:34:31;;;;;;;7.53;4.13;;;;;;;1.61;100.00;99432.69;5058254;28;20378;-75
2021/12/08 00:37:01;;;;;;;10.55;4.40;;;;;;;1.57;100.00;99434.38;5051855;28;20044;-75
2021/12/08 00:39:30;;;;;;;7.83;4.20;;;;;;;1.54;100.00;99440.38;5038223;28;20035;-76
2021/12/08 00:41:58;;;;;;;8.95;4.90;;;;;;;1.53;100.00;99410.09;5069755;28;20060;-76
2021/12/08 00:44:27;;;;;;;11.00;4.00;;;;;;;1.51;100.00;99404.00;5036497;28;20049;-76
2021/12/08 00:46:55;;;;;;;11.90;5.00;;;;;;;1.52;100.00;99392.75;5009034;28;20037;-75
2021/12/08 00:49:23;;;;;;;8.88;4.07;;;;;;;1.50;100.00;99391.84;5040299;28;20041;-76
2021/12/08 00:51:53;;;;;;;8.85;4.35;;;;;;;1.52;100.00;99395.34;5033561;28;20045;-75
2021/12/08 00:54:22;;;;;;;6.85;3.80;;;;;;;1.52;100.00;99390.16;5044103;28;20032;-75
2021/12/08 00:56:50;;;;;;;9.82;4.88;;;;;;;1.55;100.00;99378.94;5027453;28;20175;-75
2021/12/08 00:59:19;;;;;;;9.50;4.35;;;;;;;1.56;100.00;99389.34;5035383;28;20037;-77
2021/12/08 01:01:47;;;;;;;13.82;5.55;;;;;;;1.58;100.00;99385.91;5071753;28;20264;-76
2021/12/08 01:04:16;;;;;;;10.57;4.82;;;;;;;1.59;100.00;99369.47;5026776;28;20049;-76
2021/12/08 01:06:45;;;;;;;10.13;4.15;;;;;;;1.60;100.00;99382.47;5040584;28;20041;-76
2021/12/08 01:09:16;;;;;;;7.35;4.03;;;;;;;1.63;100.00;99394.66;5045659;28;20517;-76
2021/12/08 01:11:44;;;;;;;11.25;4.00;;;;;;;1.64;100.00;99409.38;5050622;28;20709;-76
2021/12/08 01:14:13;;;;;;;12.23;4.07;;;;;;;1.65;100.00;99411.13;5050427;28;20047;-75
2021/12/08 01:16:42;;;;;;;13.60;5.03;;;;;;;1.66;100.00;99392.97;5061503;28;20036;-76
2021/12/08 01:19:11;;;;;;;6.93;4.10;;;;;;;1.68;100.00;99386.09;5040318;28;20041;-76
2021/12/08 01:21:39;;;;;;;9.10;4.50;;;;;;;1.69;100.00;99381.75;5048349;28;20398;-76
2021/12/08 01:24:09;;;;;;;13.02;4.20;;;;;;;1.69;100.00;99381.75;5045149;28;20525;-76
2021/12/08 01:26:37;;;;;;;12.07;4.32;;;;;;;1.69;100.00;99380.03;5080239;28;20048;-75
2021/12/08 01:29:07;;;;;;;6.03;3.78;;;;;;;1.69;100.00;99373.97;5054426;28;20494;-76
2021/12/08 01:31:39;;;;;;;7.50;3.75;;;;;;;1.70;100.00;99366.22;5081063;28;20533;-76
2021/12/08 01:34:10;;;;;;;7.88;3.53;;;;;;;1.71;100.00;99380.06;5039648;28;20036;-76
2021/12/08 01:36:39;;;;;;;10.23;4.22;;;;;;;1.71;100.00;99390.47;5041845;28;20044;-77
2021/12/08 01:39:09;;;;;;;16.08;4.72;;;;;;;1.71;100.00;99385.25;5068089;28;20032;-75
2021/12/08 01:41:39;;;;;;;8.90;3.92;;;;;;;1.71;100.00;99375.72;5046228;28;20076;-76
2021/12/08 01:46:55;;;;;;;8.77;3.92;;;;;;;1.70;100.00;99374.00;5067774;28;20045;-77
2021/12/08 01:49:24;;;;;;;6.68;3.63;;;;;;;1.69;100.00;99361.84;5051779;28;20064;-75
2021/12/08 01:51:52;;;;;;;8.85;4.20;;;;;;;1.70;100.00;99361.03;5044751;28;20033;-76
2021/12/08 01:54:21;;;;;;;8.43;3.92;;;;;;;1.70;100.00;99357.53;5057165;28;20049;-76
2021/12/08 01:56:50;;;;;;;9.77;3.90;;;;;;;1.69;100.00;99340.22;5055437;28;20041;-76
2021/12/08 01:59:18;;;;;;;9.13;3.80;;;;;;;1.69;100.00;99335.03;5055960;28;20798;-76
2021/12/08 02:01:46;;;;;;;8.02;4.07;;;;;;;1.70;100.00;99339.34;5056212;28;20041;-76
2021/12/08 02:04:15;;;;;;;7.03;4.03;;;;;;;1.69;100.00;99348.00;5045699;28;20041;-76
2021/12/08 02:06:46;;;;;;;6.32;3.85;;;;;;;1.69;100.00;99350.59;5024217;28;20163;-76
2021/12/08 02:09:16;;;;;;;6.65;3.65;;;;;;;1.67;100.00;99358.38;5046931;28;20045;-76
2021/12/08 02:11:46;;;;;;;5.88;3.25;;;;;;;1.67;100.00;99358.38;5053562;28;20051;-76
2021/12/08 02:14:15;;;;;;;6.18;3.63;;;;;;;1.67;100.00;99347.97;5064389;28;20040;-76
2021/12/08 02:16:51;;;;;;;10.93;3.60;;;;;;;1.67;100.00;99353.19;5052388;28;20045;-75
2021/12/08 02:19:20;;;;;;;9.35;4.30;;;;;;;1.70;100.00;99339.34;5043889;28;20280;-76
2021/12/08 02:21:52;;;;;;;6.35;3.70;;;;;;;1.69;100.00;99337.63;5047438;28;20628;-76
2021/12/08 02:24:22;;;;;;;4.40;3.50;;;;;;;1.67;100.00;99340.19;5066609;28;20502;-77
2021/12/08 02:26:52;;;;;;;7.25;3.60;;;;;;;1.67;100.00;99331.53;5053077;28;20037;-75
2021/12/08 02:29:34;;;;;;;8.98;3.75;;;;;;;1.66;100.00;99333.22;5012097;28;20072;-75
2021/12/08 02:48:33;;;;;;;11.57;4.55;;;;;;;1.78;100.00;99316.97;5057120;28;20138;-76
2021/12/08 02:51:02;;;;;;;9.68;4.20;;;;;;;1.81;100.00;99305.75;5049003;28;20037;-76
2021/12/08 02:53:32;;;;;;;9.68;4.00;;;;;;;1.85;100.00;99315.31;5035453;28;20532;-76
2021/12/08 02:56:01;;;;;;;7.18;3.97;;;;;;;1.87;100.00;99304.13;5045542;28;20052;-76
2021/12/08 02:58:29;;;;;;;7.63;3.90;;;;;;;1.90;100.00;99295.50;5045233;28;20041;-76
2021/12/08 03:01:03;;;;;;;13.40;4.22;;;;;;;1.92;100.00;99285.97;5061680;28;20044;-76
2021/12/08 03:03:32;;;;;;;5.32;3.60;;;;;;;1.92;100.00;99275.59;5045403;28;20306;-76
2021/12/08 03:06:01;;;;;;;7.20;3.80;;;;;;;1.94;100.00;99279.09;5054850;28;20053;-75
2021/12/08 03:08:30;;;;;;;6.25;3.75;;;;;;;1.96;100.00;99287.75;5053564;28;20244;-76
2021/12/08 03:11:00;;;;;;;7.90;4.05;;;;;;;1.97;100.00;99281.72;5052630;28;20037;-76
2021/12/08 03:13:31;;;;;;;8.80;4.30;;;;;;;2.00;100.00;99283.47;5034866;28;20075;-76
2021/12/08 03:16:01;;;;;;;8.73;4.70;;;;;;;2.01;100.00;99283.50;5066282;28;20041;-75
2021/12/08 03:18:35;;;;;;;8.35;4.28;;;;;;;2.03;100.00;99289.59;5065131;28;20457;-76
2021/12/08 03:21:06;;;;;;;7.53;3.88;;;;;;;2.04;100.00;99293.94;5048044;28;20061;-76
2021/12/08 03:26:14;;;;;;;9.25;3.92;;;;;;;2.10;100.00;99286.22;5061668;28;20036;-76
2021/12/08 03:28:56;;;;;;;6.15;3.85;;;;;;;2.11;100.00;99303.53;5057244;28;20048;-76
2021/12/08 03:31:31;;;;;;;8.35;4.07;;;;;;;2.13;100.00;99296.63;5056818;28;20721;-75
2021/12/08 03:33:59;;;;;;;7.65;4.28;;;;;;;2.17;100.00;99296.69;5089893;28;20048;-76
2021/12/08 03:36:28;;;;;;;6.03;4.63;;;;;;;2.19;100.00;99295.84;5048278;28;20383;-76
2021/12/08 03:38:56;;;;;;;11.38;5.03;;;;;;;2.21;100.00;99288.97;5036658;28;20040;-76
2021/12/08 03:41:31;;;;;;;6.40;4.53;;;;;;;2.23;100.00;99292.44;5043118;28;20257;-76
2021/12/08 03:44:04;;;;;;;8.60;4.93;;;;;;;2.26;100.00;99297.66;5065318;28;20040;-77
2021/12/08 03:46:39;;;;;;;9.52;4.68;;;;;;;2.29;100.00;99297.72;5089108;28;20063;-76
2021/12/08 03:49:14;;;;;;;6.55;5.22;;;;;;;2.33;100.00;99303.81;5072673;28;20055;-77
2021/12/08 03:51:44;;;;;;;9.85;5.18;;;;;;;2.36;100.00;99308.16;5038860;28;20057;-76
2021/12/08 03:54:12;;;;;;;10.95;5.07;;;;;;;2.39;100.00;99308.22;5046882;28;20032;-76
2021/12/08 03:56:43;;;;;;;10.95;5.60;;;;;;;2.41;100.00;99299.56;5054883;28;20055;-76
2021/12/08 03:59:11;;;;;;;10.00;5.65;;;;;;;2.42;100.00;99303.03;5045515;28;20044;-76
2021/12/08 04:01:39;;;;;;;11.85;6.18;;;;;;;2.43;100.00;99300.47;5039741;28;20041;-76
2021/12/08 04:04:10;;;;;;;7.60;5.80;;;;;;;2.45;100.00;99314.34;5067886;28;20044;-78
2021/12/08 04:06:49;;;;;;;7.43;5.85;;;;;;;2.47;100.00;99304.84;5037179;28;20044;-76
2021/12/08 04:11:56;;;;;;;8.05;5.40;;;;;;;2.50;100.00;99306.63;5050502;28;20532;-76
2021/12/08 04:14:27;;;;;;;6.93;5.00;;;;;;;2.53;100.00;99317.03;5052206;28;20053;-76
2021/12/08 04:17:09;;;;;;;6.88;5.25;;;;;;;2.55;100.00;99323.13;5062792;28;20044;-76
2021/12/08 04:19:39;;;;;;;16.48;5.63;;;;;;;2.57;100.00;99321.44;5055932;28;20041;-76
2021/12/08 04:22:20;;;;;;;8.77;5.70;;;;;;;2.60;100.00;99324.03;5069360;28;20045;-76
2021/12/08 04:24:51;;;;;;;7.05;5.45;;;;;;;2.63;100.00;99333.63;5047079;28;20041;-76
2021/12/08 04:27:24;;;;;;;10.85;6.18;;;;;;;2.65;100.00;99324.13;5061636;28;20056;-76
2021/12/08 04:29:53;;;;;;;9.40;6.07;;;;;;;2.67;100.00;99330.19;5072205;28;20052;-75
2021/12/08 04:36:51;;;;;;;7.70;6.85;;;;;;;2.73;100.00;99335.47;5070398;28;20043;-75
2021/12/08 04:39:38;;;;;;;10.77;7.03;;;;;;;2.74;100.00;99339.78;5034458;28;20258;-77
2021/12/08 04:42:12;;;;;;;11.75;7.10;;;;;;;2.76;100.00;99334.59;5057003;28;20048;-75
2021/12/08 04:44:48;;;;;;;11.75;7.53;;;;;;;2.78;100.00;99335.50;5068789;28;20041;-76
2021/12/08 04:47:34;;;;;;;12.13;7.35;;;;;;;2.79;100.00;99348.53;5050558;28;20049;-76
2021/12/08 04:50:45;;;;;;;10.02;6.95;;;;;;;2.82;100.00;99351.16;5051968;28;20045;-76
2021/12/08 05:02:21;;;;;;;11.88;8.77;;;;;;;2.91;100.00;99334.75;5039492;28;20052;-76
2021/12/08 05:09:48;;;;;;;18.17;9.40;;;;;;;2.98;100.00;99344.38;5046344;28;20036;-76
2021/12/08 05:12:22;;;;;;;11.15;9.38;;;;;;;3.00;100.00;99329.66;5066104;28;20045;-76
2021/12/08 05:15:02;;;;;;;14.77;9.27;;;;;;;3.02;100.00;99333.13;5058501;28;20045;-76
2021/12/08 05:17:47;;;;;;;11.02;9.38;;;;;;;3.05;100.00;99335.78;5057759;28;20060;-76
2021/12/08 05:20:31;;;;;;;13.00;9.43;;;;;;;3.07;100.00;99333.19;5036345;28;20036;-77
2021/12/08 05:23:06;;;;;;;;;;;;;;;3.08;100.00;99335.81;5039719;28;22166;-75
2021/12/08 05:25:38;;;;;;;12.70;8.95;;;;;;;3.11;100.00;99347.97;5048225;28;19932;-77
2021/12/08 05:28:16;;;;;;;13.07;9.35;;;;;;;3.13;100.00;99343.66;5057649;28;20143;-76
2021/12/08 05:30:56;;;;;;;10.57;9.57;;;;;;;3.14;100.00;99348.03;5052647;28;20045;-76
2021/12/08 05:33:25;;;;;;;12.70;10.30;;;;;;;3.16;100.00;99356.72;5056870;28;20044;-76
2021/12/08 05:35:55;;;;;;;13.00;9.93;;;;;;;3.19;100.00;99367.13;5042526;28;23355;-76
2021/12/08 05:38:24;;;;;;;11.52;10.32;;;;;;;3.21;100.00;99355.00;5067519;28;20055;-76
2021/12/08 05:41:30;;;;;;;12.00;10.63;;;;;;;3.26;100.00;99360.25;5040486;28;21674;-76
2021/12/08 05:43:59;;;;;;;14.30;10.82;;;;;;;3.27;100.00;99362.88;5051515;28;20166;-76
2021/12/08 05:46:30;;;;;;;12.73;10.55;;;;;;;3.30;100.00;99362.88;5063149;28;20505;-76
2021/12/08 05:49:00;;;;;;;16.50;11.50;;;;;;;3.34;100.00;99361.19;5054722;28;20037;-76
2021/12/08 05:51:33;;;;;;;16.67;11.10;;;;;;;3.36;100.00;99374.22;5060441;28;20494;-76
2021/12/08 05:54:11;;;;;;;12.57;11.25;;;;;;;3.38;100.00;99381.19;5065960;28;20508;-76
2021/12/08 05:56:41;;;;;;;15.00;11.20;;;;;;;3.41;100.00;99382.97;5017939;28;20040;-76
2021/12/08 05:59:11;;;;;;;13.70;10.43;;;;;;;3.42;100.00;99382.09;5040501;28;20414;-77
2021/12/08 06:01:52;;;;;;;14.20;10.48;;;;;;;3.42;100.00;99377.78;5064915;28;20040;-77
2021/12/08 06:04:22;;;;;;;;;;;;;;;3.45;100.00;99385.59;5049782;28;20033;-75
2021/12/08 06:06:51;;;;;;;22.80;11.82;;;;;;;3.46;100.00;99374.34;5039910;28;19920;-76
2021/12/08 06:09:22;;;;;;;16.25;11.48;;;;;;;3.48;100.00;99390.84;5043255;28;20387;-76
2021/12/08 06:11:51;;;;;;;15.30;11.60;;;;;;;3.49;100.00;99387.34;5028283;28;20037;-76
2021/12/08 06:14:22;;;;;;;14.13;11.07;;;;;;;3.51;100.00;99393.44;5055724;28;20396;-75
2021/12/08 06:16:52;;;;;;;15.60;11.20;;;;;;;3.54;100.00;99392.63;5051529;28;20055;-76
2021/12/08 06:19:21;;;;;;;13.90;11.07;;;;;;;3.58;100.00;99390.91;5066333;28;20063;-76
2021/12/08 06:21:50;;;;;;;15.25;10.80;;;;;;;3.60;100.00;99384.00;5058230;28;20045;-77
2021/12/08 06:24:19;;;;;;;15.60;11.18;;;;;;;3.63;100.00;99395.31;5055230;28;20056;-76
2021/12/08 06:26:49;;;;;;;14.20;11.60;;;;;;;3.63;100.00;99397.00;5039193;28;20043;-76
2021/12/08 06:29:19;;;;;;;17.20;11.38;;;;;;;3.65;100.00;99403.13;5062451;28;20061;-76
2021/12/08 06:31:52;;;;;;;14.30;11.43;;;;;;;3.64;100.00;99407.44;5055472;28;20052;-77
2021/12/08 06:34:24;;;;;;;15.98;11.52;;;;;;;3.66;100.00;99410.06;5052636;28;20047;-76
2021/12/08 06:36:56;;;;;;;17.40;10.73;;;;;;;3.66;100.00;99410.06;5043879;28;20126;-77
2021/12/08 06:39:37;;;;;;;13.57;11.50;;;;;;;3.66;100.00;99415.28;5044374;28;20045;-76
2021/12/08 06:42:10;;;;;;;15.73;10.93;;;;;;;3.65;100.00;99418.78;5040306;28;23235;-76
2021/12/08 06:44:43;;;;;;;14.63;10.15;;;;;;;3.64;100.00;99420.47;5069872;28;20052;-76
2021/12/08 06:47:20;;;;;;;13.18;11.15;;;;;;;3.64;100.00;99417.00;5068656;28;20684;-75
2021/12/08 06:49:51;;;;;;;12.80;10.27;;;;;;;3.65;100.00;99426.59;5046099;28;20036;-76
2021/12/08 06:52:24;;;;;;;16.35;10.43;;;;;;;3.63;100.00;99423.97;5047678;28;20099;-76
2021/12/08 06:54:59;;;;;;;13.90;10.05;;;;;;;3.64;100.00;99432.63;5046277;28;20040;-76
2021/12/08 06:57:36;;;;;;;13.52;9.57;;;;;;;3.64;100.00;99437.84;5024547;28;20585;-76
2021/12/08 07:00:20;;;;;;;15.73;10.48;;;;;;;3.65;100.00;99426.59;5052706;28;20040;-76
2021/12/08 07:03:03;;;;;;;19.98;13.15;;;;;;;3.63;100.00;99428.28;5071921;28;20032;-76
2021/12/08 07:08:23;;;;;;;15.02;9.70;;;;;;;3.60;100.00;99433.47;5044939;28;20036;-81
2021/12/08 07:10:53;;;;;;;12.82;9.13;;;;;;;3.58;100.00;99443.88;5058614;28;20374;-80
2021/12/08 07:13:30;;;;;;;11.05;8.85;;;;;;;3.56;100.00;99443.00;5040144;28;20467;-81
2021/12/08 07:16:23;;;;;;;15.23;9.80;;;;;;;3.54;100.00;99442.13;5018336;28;20045;-80
2021/12/08 07:19:01;;;;;;;18.33;9.18;;;;;;;3.53;100.00;99449.91;5045862;28;20057;-81
2021/12/08 07:21:35;;;;;;;17.33;8.60;;;;;;;3.53;100.00;99455.13;5040010;28;20553;-79
2021/12/08 07:24:15;;;;;;;13.02;8.73;;;;;;;3.53;100.00;99455.13;5044757;28;20064;-79
2021/12/08 07:26:45;;;;;;;16.38;8.93;;;;;;;3.54;100.00;99468.16;5025794;28;20071;-79
2021/12/08 07:29:21;;;;;;;15.38;9.30;;;;;;;3.56;100.00;99458.63;5054581;28;20036;-79
2021/12/08 07:31:56;;;;;;;15.05;8.95;;;;;;;3.58;100.00;99464.72;5049864;28;20529;-79
2021/12/08 07:34:26;;;;;;;13.45;9.25;;;;;;;3.59;100.00;99476.00;5063253;28;20052;-80
2021/12/08 07:37:01;;;;;;;12.87;9.67;;;;;;;3.57;100.00;99475.13;5031073;28;20043;-80
2021/12/08 07:39:33;;;;;;;18.02;9.55;;;;;;;3.56;100.00;99487.28;5040955;28;20056;-80
2021/12/08 07:42:08;;;;;;;10.73;7.97;;;;;;;3.54;100.00;99472.50;5041550;28;20040;-79
2021/12/08 07:44:37;;;;;;;13.10;8.48;;;;;;;3.53;100.00;99486.38;5029631;28;20270;-79
2021/12/08 07:47:09;;;;;;;15.90;8.15;;;;;;;3.53;100.00;99494.19;5038749;28;20040;-79
2021/12/08 07:49:45;;;;;;;14.23;8.93;;;;;;;3.50;100.00;99498.50;5054711;28;20301;-78
2021/12/08 07:52:22;;;;;;;13.02;8.35;;;;;;;3.47;100.00;99488.03;5052476;28;20040;-79
2021/12/08 07:54:51;;;;;;;16.67;8.75;;;;;;;3.47;100.00;99490.66;5058588;28;20048;-78
2021/12/08 07:57:25;;;;;;;10.32;7.35;;;;;;;3.45;100.00;99497.56;5063679;28;20051;-79
2021/12/08 07:59:58;;;;;;;11.23;7.97;;;;;;;3.46;100.00;99490.63;5046347;28;20044;-78
2021/12/08 08:02:28;;;;;;;12.85;7.78;;;;;;;3.48;100.00;99482.00;5015417;28;20621;-79
2021/12/08 08:04:59;;;;;;;7.85;5.47;;;;;;;3.47;100.00;99490.66;5030039;28;20521;-80
2021/12/08 08:07:28;;;;;;;10.77;6.70;;;;;;;3.47;100.00;99493.25;5040806;28;20056;-79
2021/12/08 08:10:01;;;;;;;13.20;7.45;;;;;;;3.47;100.00;99501.06;5050654;28;20045;-79
2021/12/08 08:12:35;;;;;;;10.90;7.40;;;;;;;3.48;100.00;99509.78;5035395;28;20124;-79
2021/12/08 08:15:08;;;;;;;9.80;6.57;;;;;;;3.47;100.00;99501.06;5030873;28;20041;-79
2021/12/08 08:17:41;;;;;;;11.70;6.47;;;;;;;3.47;100.00;99514.09;5047973;28;20043;-79
2021/12/08 08:20:26;;;;;;;12.43;6.30;;;;;;;3.48;100.00;99510.66;5029509;28;20060;-80
2021/12/08 08:22:56;;;;;;;10.77;6.13;;;;;;;3.48;100.00;99520.19;5061304;28;20049;-79
2021/12/08 08:25:30;;;;;;;11.07;6.25;;;;;;;3.46;100.00;99533.19;5033685;28;20053;-79
2021/12/08 08:27:59;;;;;;;9.32;5.75;;;;;;;3.49;100.00;99537.56;5055048;28;20052;-79
2021/12/08 08:30:32;;;;;;;7.80;5.50;;;;;;;3.49;100.00;99533.22;5052964;28;20657;-79
2021/12/08 08:33:01;;;;;;;6.63;5.13;;;;;;;3.50;100.00;99526.28;5055330;28;20375;-78
2021/12/08 08:35:43;;;;;;;9.65;5.38;;;;;;;3.51;100.00;99522.81;4992336;28;20261;-79
2021/12/08 08:38:37;;;;;;;9.60;5.60;;;;;;;3.51;100.00;99526.28;5033386;28;20037;-79
2021/12/08 08:41:18;;;;;;;12.40;5.50;;;;;;;3.54;100.00;99530.66;5060660;28;20052;-78
2021/12/08 08:43:49;;;;;;;9.68;5.30;;;;;;;3.56;100.00;99531.56;5056446;28;20044;-78
2021/12/08 08:46:26;;;;;;;8.70;5.18;;;;;;;3.59;100.00;99538.53;5047184;28;20056;-80
2021/12/08 08:48:59;;;;;;;12.02;5.07;;;;;;;3.61;100.00;99524.69;5042925;28;20044;-78
2021/12/08 08:51:31;;;;;;;9.75;4.97;;;;;;;3.64;100.00;99527.28;5048002;28;20037;-81
2021/12/08 08:54:13;;;;;;;7.93;4.70;;;;;;;3.66;100.00;99528.19;5054176;28;20044;-79
2021/12/08 08:56:49;;;;;;;7.68;4.50;;;;;;;3.70;100.00;99531.69;5047907;28;20048;-79
2021/12/08 08:59:25;;;;;;;8.85;4.65;;;;;;;3.74;100.00;99535.19;5059348;28;20036;-80
2021/12/08 09:01:56;;;;;;;10.27;4.28;;;;;;;3.77;100.00;99535.25;5058737;28;20039;-80
2021/12/08 09:04:38;;;;;;;9.82;4.28;;;;;;;3.79;100.00;99533.53;5064983;28;20489;-81
2021/12/08 09:07:18;;;;;;;9.48;4.00;;;;;;;3.85;100.00;99530.97;5050289;28;20112;-79
2021/12/08 09:09:49;;;;;;;10.80;4.22;;;;;;;3.88;100.00;99537.09;5047166;28;20060;-78
2021/12/08 09:12:40;;;;;;;8.30;3.13;;;;;;;3.94;100.00;99551.91;5043416;28;20611;-80
2021/12/08 09:15:31;;;;;;;11.82;3.55;;;;;;;3.98;100.00;99553.66;5070284;28;20048;-80
2021/12/08 09:18:11;;;;;;;8.80;3.65;;;;;;;4.04;100.00;99576.31;5056281;28;20041;-79
2021/12/08 09:21:01;;;;;;;7.72;3.08;;;;;;;4.06;100.00;99574.59;5020695;28;20068;-80
2021/12/08 09:24:08;;;;;;;6.90;2.75;;;;;;;4.07;100.00;99571.13;5044404;28;20237;-81
2021/12/08 09:26:47;;;;;;;10.48;3.50;;;;;;;4.07;100.00;99585.03;5053459;28;20292;-79
2021/12/08 09:29:24;;;;;;;10.00;3.92;;;;;;;4.09;100.00;99572.88;5043067;28;20319;-80
2021/12/08 09:32:05;;;;;;;5.57;2.92;;;;;;;4.14;100.00;99585.09;5056351;28;20052;-80
2021/12/08 09:34:54;;;;;;;7.90;2.80;;;;;;;4.16;100.00;99578.16;5052265;28;20051;-80
2021/12/08 09:37:31;;;;;;;10.55;2.97;;;;;;;4.20;100.00;99579.97;5023884;28;20398;-81
2021/12/08 09:40:10;;;;;;;10.63;2.40;;;;;;;4.26;100.00;99580.00;5056930;28;20055;-79
2021/12/08 09:42:47;;;;;;;10.53;2.97;;;;;;;4.32;100.00;99587.88;5034767;28;20045;-80
2021/12/08 09:45:18;;;;;;;12.02;2.70;;;;;;;4.39;100.00;99587.06;5070334;28;20290;-79
2021/12/08 09:47:47;;;;;;;9.43;2.80;;;;;;;4.46;100.00;99590.56;5072698;28;20056;-79
2021/12/08 09:50:16;;;;;;;9.02;3.00;;;;;;;4.51;100.00;99577.59;5056038;28;20040;-79
2021/12/08 09:52:46;;;;;;;7.90;2.40;;;;;;;4.53;100.00;99589.75;5050059;28;20036;-79
2021/12/08 09:55:17;;;;;;;7.67;2.27;;;;;;;4.54;100.00;99590.63;5066852;28;20522;-80
2021/12/08 09:57:47;;;;;;;4.63;2.00;;;;;;;4.55;100.00;99605.44;5051646;28;20483;-79
2021/12/08 10:00:34;;;;;;;8.07;2.15;;;;;;;4.56;100.00;99622.84;5056516;28;20044;-80
2021/12/08 10:03:05;;;;;;;10.05;2.60;;;;;;;4.55;100.00;99619.34;5054627;28;20379;-80
2021/12/08 10:05:37;;;;;;;10.68;2.58;;;;;;;4.56;100.00;99626.31;5048302;28;20048;-80
2021/12/08 10:08:07;;;;;;;7.25;2.40;;;;;;;4.57;100.00;99628.06;5029308;28;20384;-79
2021/12/08 10:10:38;;;;;;;6.65;2.90;;;;;;;4.60;100.00;99630.69;5028666;28;20604;-80
2021/12/08 10:13:08;;;;;;;16.38;3.88;;;;;;;4.64;100.00;99624.63;5043426;28;20045;-80
2021/12/08 10:15:37;;;;;;;10.32;2.90;;;;;;;4.69;100.00;99632.53;5011611;28;20041;-79
2021/12/08 10:18:07;;;;;;;7.82;2.55;;;;;;;4.72;100.00;99626.44;5040454;28;20049;-81
2021/12/08 10:20:41;;;;;;;17.15;2.75;;;;;;;4.73;100.00;99622.97;5029017;28;20564;-79
2021/12/08 10:23:14;;;;;;;5.30;2.67;;;;;;;4.74;100.00;99627.31;5022647;28;20060;-81
2021/12/08 10:25:53;;;;;;;9.90;2.72;;;;;;;4.77;100.00;99624.75;5063644;28;20376;-79
2021/12/08 10:28:28;;;;;;;16.77;3.20;;;;;;;4.82;100.00;99623.00;5059662;28;20032;-80
2021/12/08 10:31:01;;;;;;;8.10;2.95;;;;;;;4.87;100.00;99610.88;5067486;28;20052;-79
2021/12/08 10:34:06;;;;;;;7.28;2.33;;;;;;;4.90;100.00;99623.97;5041726;28;20356;-79
2021/12/08 10:36:49;;;;;;;8.18;2.45;;;;;;;4.91;100.00;99623.09;5062511;28;20606;-80
2021/12/08 10:39:45;;;;;;;9.35;2.65;;;;;;;4.94;100.00;99623.13;5043189;28;20044;-80
2021/12/08 10:42:14;;;;;;;9.18;2.10;;;;;;;4.99;100.00;99612.69;5060910;28;20063;-79
2021/12/08 10:47:49;;;;;;;10.38;2.40;;;;;;;5.10;100.00;99604.91;5053267;28;20040;-80
2021/12/08 10:56:40;;;;;;;8.45;2.35;;;;;;;5.23;100.00;99597.16;5029290;28;20266;-79
2021/12/08 10:59:09;;;;;;;8.10;2.88;;;;;;;5.26;100.00;99596.31;5037719;28;20033;-79
2021/12/08 11:01:37;;;;;;;8.65;2.60;;;;;;;5.31;100.00;99585.88;5026746;28;20052;-79
2021/12/08 11:04:08;;;;;;;8.27;2.60;;;;;;;5.34;100.00;99586.75;5049320;28;20048;-79
2021/12/08 11:06:38;;;;;;;8.73;2.55;;;;;;;5.37;100.00;99598.94;5044529;28;20064;-79
2021/12/08 11:09:21;;;;;;;6.67;2.23;;;;;;;5.40;100.00;99601.59;5041063;28;20043;-81
2021/12/08 11:11:51;;;;;;;9.00;2.75;;;;;;;5.43;100.00;99606.84;5051231;28;20045;-78
2021/12/08 11:14:20;;;;;;;9.57;2.83;;;;;;;5.47;100.00;99606.84;5041516;28;20044;-79
2021/12/08 11:16:48;;;;;;;8.77;2.35;;;;;;;5.50;100.00;99610.31;5044438;28;20033;-79
2021/12/08 11:19:22;;;;;;;6.22;2.00;;;;;;;5.54;100.00;99609.47;5055329;28;20043;-80
2021/12/08 11:21:55;;;;;;;7.60;2.50;;;;;;;5.58;100.00;99606.03;5078021;28;20048;-79
2021/12/08 11:24:35;;;;;;;8.25;3.05;;;;;;;5.59;100.00;99598.16;5027586;28;20048;-81
2021/12/08 11:27:08;;;;;;;8.68;2.35;;;;;;;5.62;100.00;99603.41;5049117;28;20041;-79
2021/12/08 11:29:42;;;;;;;10.95;2.72;;;;;;;5.65;100.00;99613.88;5018570;28;20675;-79
2021/12/08 11:32:15;;;;;;;8.00;2.85;;;;;;;5.68;100.00;99610.41;5050558;28;20063;-79
2021/12/08 11:34:47;;;;;;;7.88;2.70;;;;;;;5.66;100.00;99620.84;5046641;28;20075;-79
2021/12/08 11:37:21;;;;;;;9.73;2.88;;;;;;;5.63;100.00;99625.19;5045833;28;20040;-79
2021/12/08 11:40:00;;;;;;;11.27;3.00;;;;;;;5.58;100.00;99627.78;5038239;28;20044;-79
2021/12/08 11:42:34;;;;;;;8.32;2.80;;;;;;;5.51;100.00;99631.25;5057866;28;20149;-79
2021/12/08 11:45:15;;;;;;;7.97;2.70;;;;;;;5.45;100.00;99626.00;5032434;28;20045;-79
2021/12/08 11:47:44;;;;;;;;;;;;;;;5.40;100.00;99628.56;5035529;28;20032;-79
2021/12/08 11:50:16;;;;;;;10.77;3.10;;;;;;;5.39;100.00;99639.91;5055711;28;20408;-80
2021/12/08 11:52:44;;;;;;;5.30;2.45;;;;;;;5.38;100.00;99640.75;5044318;28;20312;-80
2021/12/08 11:55:19;;;;;;;8.27;2.25;;;;;;;5.38;100.00;99637.28;5034130;28;20040;-80
2021/12/08 11:57:53;;;;;;;12.30;2.95;;;;;;;5.37;100.00;99644.25;5064365;28;20044;-81
2021/12/08 12:00:24;;;;;;;10.50;2.83;;;;;;;5.39;100.00;99639.91;5030527;28;20041;-79
2021/12/08 12:03:00;;;;;;;8.85;2.53;;;;;;;5.41;100.00;99647.75;5060369;28;20056;-80
2021/12/08 12:05:43;;;;;;;8.20;2.90;;;;;;;5.40;100.00;99646.88;5058107;28;20254;-80
2021/12/08 12:08:14;;;;;;;6.78;2.28;;;;;;;5.40;100.00;99659.06;5051856;28;20037;-80
2021/12/08 12:10:46;;;;;;;6.03;2.92;;;;;;;5.39;100.00;99659.94;5023837;28;20044;-81
2021/12/08 12:13:15;;;;;;;9.02;2.50;;;;;;;5.35;100.00;99661.66;5068783;28;20049;-81
2021/12/08 12:15:47;;;;;;;8.90;2.55;;;;;;;5.32;100.00;99664.25;5055633;28;20174;-80
2021/12/08 12:18:21;;;;;;;10.93;2.83;;;;;;;5.31;100.00;99672.06;5027175;28;20402;-81
2021/12/08 12:21:06;;;;;;;8.88;2.65;;;;;;;5.30;100.00;99670.34;5048774;28;20051;-81
2021/12/08 12:24:10;;;;;;;11.63;2.30;;;;;;;5.27;100.00;99676.41;5046829;28;20162;-82
2021/12/08 12:27:14;;;;;;;10.40;3.03;;;;;;;5.26;100.00;99685.13;5037587;28;20138;-81
2021/12/08 12:30:08;;;;;;;4.68;2.08;;;;;;;5.25;100.00;99691.19;5048547;28;20033;-81
2021/12/08 12:32:46;;;;;;;6.38;2.53;;;;;;;5.22;100.00;99697.28;5048774;28;20036;-81
2021/12/08 12:35:38;;;;;;;13.07;3.00;;;;;;;5.24;100.00;99705.13;5028483;28;20049;-80
2021/12/08 12:38:11;;;;;;;7.07;2.00;;;;;;;5.21;100.00;99700.75;5064968;28;20494;-81
2021/12/08 12:40:50;;;;;;;6.72;2.40;;;;;;;5.20;100.00;99725.13;5032436;28;20173;-80
2021/12/08 12:43:27;;;;;;;8.23;2.65;;;;;;;5.19;100.00;99725.13;5031391;28;20037;-81
2021/12/08 12:46:07;;;;;;;6.75;2.22;;;;;;;5.18;100.00;99721.63;5060162;28;20043;-79
2021/12/08 12:48:37;;;;;;;9.77;2.55;;;;;;;5.17;100.00;99722.47;5033029;28;20044;-80
2021/12/08 12:51:08;;;;;;;12.15;2.72;;;;;;;5.17;100.00;99721.63;5045471;28;20630;-79
2021/12/08 12:53:56;;;;;;;5.32;2.03;;;;;;;5.18;100.00;99724.25;5038124;28;20048;-78
2021/12/08 12:56:34;;;;;;;;;;;;;;;5.17;100.00;99724.22;5044080;28;20056;-77
2021/12/08 12:59:15;;;;;;;9.40;2.65;;;;;;;5.17;100.00;99732.06;5034997;28;19957;-77